createdAt,value
2023-05-21T00:00:46.663Z,15.77
2023-05-21T00:01:46.661Z,15.80
2023-05-21T00:02:46.726Z,15.83
2023-05-21T00:03:46.790Z,15.90
2023-05-21T00:04:46.646Z,15.83
2023-05-21T00:05:46.735Z,15.75
2023-05-21T00:06:46.636Z,15.80
2023-05-21T00:07:46.627Z,15.76
2023-05-21T00:08:46.670Z,15.79
2023-05-21T00:09:46.619Z,15.80
2023-05-21T00:10:46.614Z,15.79
2023-05-21T00:11:46.612Z,15.75
2023-05-21T00:12:46.598Z,15.68
2023-05-21T00:13:46.604Z,15.80
2023-05-21T00:14:46.591Z,15.76
2023-05-21T00:15:46.580Z,15.77
2023-05-21T00:16:46.642Z,15.77
2023-05-21T00:17:46.608Z,15.76
2023-05-21T00:18:46.610Z,15.75
2023-05-21T00:19:46.563Z,15.79
2023-05-21T00:20:46.557Z,15.79
2023-05-21T00:21:46.556Z,15.76
2023-05-21T00:22:46.545Z,15.75
2023-05-21T00:23:46.549Z,15.79
2023-05-21T00:24:46.550Z,15.73
2023-05-21T00:25:46.532Z,15.70
2023-05-21T00:26:46.525Z,15.61
2023-05-21T00:27:46.521Z,15.64
2023-05-21T00:28:46.510Z,15.61
2023-05-21T00:29:46.506Z,15.79
2023-05-21T00:30:46.498Z,15.67
2023-05-21T00:31:46.514Z,15.70
2023-05-21T00:32:46.518Z,15.65
2023-05-21T00:33:46.495Z,15.61
2023-05-21T00:34:46.482Z,15.59
2023-05-21T00:35:46.489Z,15.59
2023-05-21T00:36:46.471Z,15.57
2023-05-21T00:37:46.459Z,15.51
2023-05-21T00:38:46.468Z,15.43
2023-05-21T00:39:46.448Z,15.40
2023-05-21T00:40:46.441Z,15.37
2023-05-21T00:41:46.439Z,15.40
2023-05-21T00:42:46.435Z,15.27
2023-05-21T00:43:46.424Z,15.29
2023-05-21T00:44:46.417Z,15.31
2023-05-21T00:45:46.650Z,15.28
2023-05-21T00:46:46.404Z,15.22
2023-05-21T00:47:46.427Z,15.19
2023-05-21T00:48:46.394Z,15.07
2023-05-21T00:49:46.398Z,15.10
2023-05-21T00:50:46.400Z,14.99
2023-05-21T00:51:46.389Z,15.09
2023-05-21T00:52:46.372Z,15.18
2023-05-21T00:53:46.371Z,15.18
2023-05-21T00:54:46.361Z,15.17
2023-05-21T00:55:46.356Z,15.15
2023-05-21T00:56:46.354Z,15.10
2023-05-21T00:57:46.414Z,14.97
2023-05-21T00:58:46.356Z,15.04
2023-05-21T00:59:46.344Z,14.96
2023-05-21T01:00:46.332Z,14.86
2023-05-21T01:01:46.395Z,14.92
2023-05-21T01:02:46.396Z,14.89
2023-05-21T01:03:46.410Z,14.88
2023-05-21T01:04:46.310Z,14.84
2023-05-21T01:05:46.301Z,14.85
2023-05-21T01:06:46.296Z,14.86
2023-05-21T01:07:46.287Z,14.86
2023-05-21T01:08:46.302Z,14.85
2023-05-21T01:09:46.275Z,14.84
2023-05-21T01:10:46.272Z,14.77
2023-05-21T01:11:46.266Z,14.73
2023-05-21T01:12:46.257Z,14.73
2023-05-21T01:13:46.254Z,14.79
2023-05-21T01:14:46.243Z,14.77
2023-05-21T01:15:46.251Z,14.78
2023-05-21T01:16:46.304Z,14.77
2023-05-21T01:17:46.377Z,14.73
2023-05-21T01:18:46.264Z,14.70
2023-05-21T01:19:46.317Z,14.65
2023-05-21T01:20:46.214Z,14.65
2023-05-21T01:21:46.232Z,14.53
2023-05-21T01:22:46.202Z,14.63
2023-05-21T01:23:46.195Z,14.55
2023-05-21T01:24:46.192Z,14.48
2023-05-21T01:25:46.190Z,14.45
2023-05-21T01:26:46.179Z,14.45
2023-05-21T01:27:46.173Z,14.48
2023-05-21T01:28:46.172Z,14.37
2023-05-21T01:29:46.163Z,14.33
2023-05-21T01:30:46.156Z,14.29
2023-05-21T01:31:46.146Z,14.30
2023-05-21T01:32:46.234Z,14.26
2023-05-21T01:33:46.216Z,14.23
2023-05-21T01:34:46.133Z,14.23
2023-05-21T01:35:46.128Z,14.14
2023-05-21T01:36:46.119Z,14.23
2023-05-21T01:37:46.120Z,14.18
2023-05-21T01:38:46.112Z,14.18
2023-05-21T01:39:46.102Z,14.15
2023-05-21T01:40:46.110Z,14.05
2023-05-21T01:41:46.120Z,14.07
2023-05-21T01:42:46.090Z,13.92
2023-05-21T01:43:46.080Z,14.04
2023-05-21T01:44:46.076Z,14.14
2023-05-21T01:45:46.073Z,14.04
2023-05-21T01:46:46.135Z,14.05
2023-05-21T01:47:46.080Z,14.10
2023-05-21T01:48:46.053Z,13.92
2023-05-21T01:49:46.052Z,13.83
2023-05-21T01:50:46.042Z,13.77
2023-05-21T01:51:46.039Z,13.86
2023-05-21T01:52:46.031Z,13.89
2023-05-21T01:53:46.023Z,13.78
2023-05-21T01:54:46.020Z,13.74
2023-05-21T01:55:46.112Z,13.72
2023-05-21T01:56:46.008Z,13.85
2023-05-21T01:57:45.998Z,13.79
2023-05-21T01:58:46.000Z,13.75
2023-05-21T01:59:45.989Z,13.78
2023-05-21T02:00:45.992Z,13.71
2023-05-21T02:01:46.010Z,13.77
2023-05-21T02:02:46.055Z,13.74
2023-05-21T02:03:46.090Z,13.65
2023-05-21T02:04:45.965Z,13.63
2023-05-21T02:05:45.956Z,13.59
2023-05-21T02:06:45.948Z,13.71
2023-05-21T02:07:45.946Z,13.60
2023-05-21T02:08:45.937Z,13.53
2023-05-21T02:09:45.932Z,13.54
2023-05-21T02:10:45.925Z,13.49
2023-05-21T02:11:45.928Z,13.52
2023-05-21T02:12:45.927Z,13.47
2023-05-21T02:13:45.918Z,13.50
2023-05-21T02:14:45.902Z,13.57
2023-05-21T02:15:45.892Z,13.50
2023-05-21T02:16:45.947Z,13.57
2023-05-21T02:17:45.910Z,13.44
2023-05-21T02:18:45.892Z,13.50
2023-05-21T02:19:45.889Z,13.38
2023-05-21T02:20:45.864Z,13.46
2023-05-21T02:21:45.921Z,13.42
2023-05-21T02:22:45.860Z,13.47
2023-05-21T02:23:45.866Z,13.49
2023-05-21T02:24:45.843Z,13.49
2023-05-21T02:25:45.838Z,13.54
2023-05-21T02:26:45.835Z,13.60
2023-05-21T02:27:45.822Z,13.57
2023-05-21T02:28:45.817Z,13.54
2023-05-21T02:29:45.821Z,13.62
2023-05-21T02:30:45.814Z,13.68
2023-05-21T02:31:45.792Z,13.60
2023-05-21T02:32:45.856Z,13.74
2023-05-21T02:33:45.799Z,13.83
2023-05-21T02:34:45.782Z,13.81
2023-05-21T02:35:45.793Z,13.83
2023-05-21T02:36:45.770Z,13.75
2023-05-21T02:37:45.768Z,13.89
2023-05-21T02:38:45.767Z,14.05
2023-05-21T02:39:45.749Z,14.15
2023-05-21T02:40:45.760Z,14.12
2023-05-21T02:41:45.735Z,14.23
2023-05-21T02:42:45.736Z,14.33
2023-05-21T02:43:45.728Z,14.12
2023-05-21T02:44:45.721Z,14.20
2023-05-21T02:45:45.784Z,14.28
2023-05-21T02:46:45.711Z,14.29
2023-05-21T02:47:45.721Z,14.17
2023-05-21T02:48:45.690Z,14.17
2023-05-21T02:49:45.685Z,14.36
2023-05-21T02:50:45.695Z,14.41
2023-05-21T02:51:45.674Z,14.45
2023-05-21T02:52:45.668Z,14.45
2023-05-21T02:53:45.679Z,14.51
2023-05-21T02:54:45.650Z,14.47
2023-05-21T02:55:45.657Z,14.47
2023-05-21T02:56:45.640Z,14.53
2023-05-21T02:57:45.636Z,14.51
2023-05-21T02:58:45.625Z,14.58
2023-05-21T02:59:45.624Z,14.53
2023-05-21T03:00:45.615Z,14.62
2023-05-21T03:01:45.629Z,14.54
2023-05-21T03:02:45.690Z,14.59
2023-05-21T03:03:45.639Z,14.55
2023-05-21T03:04:45.595Z,14.62
2023-05-21T03:05:45.581Z,14.58
2023-05-21T03:06:45.574Z,14.50
2023-05-21T03:07:45.567Z,14.59
2023-05-21T03:08:45.570Z,14.70
2023-05-21T03:09:45.555Z,14.66
2023-05-21T03:10:45.556Z,14.65
2023-05-21T03:11:45.552Z,14.69
2023-05-21T03:12:45.535Z,14.65
2023-05-21T03:13:45.616Z,14.69
2023-05-21T03:14:45.533Z,14.66
2023-05-21T03:15:45.519Z,14.65
2023-05-21T03:16:45.565Z,14.59
2023-05-21T03:17:45.518Z,14.62
2023-05-21T03:18:45.526Z,14.65
2023-05-21T03:19:45.502Z,14.70
2023-05-21T03:20:45.518Z,14.62
2023-05-21T03:21:45.483Z,14.69
2023-05-21T03:22:45.486Z,14.72
2023-05-21T03:23:45.466Z,14.72
2023-05-21T03:24:45.480Z,14.77
2023-05-21T03:25:45.454Z,14.81
2023-05-21T03:26:45.451Z,14.78
2023-05-21T03:27:45.444Z,14.78
2023-05-21T03:28:45.439Z,14.78
2023-05-21T03:29:45.435Z,14.72
2023-05-21T03:30:45.461Z,14.73
2023-05-21T03:31:45.437Z,14.77
2023-05-21T03:32:45.479Z,14.78
2023-05-21T03:33:45.407Z,14.79
2023-05-21T03:34:45.403Z,14.77
2023-05-21T03:35:45.394Z,14.70
2023-05-21T03:36:45.446Z,14.70
2023-05-21T03:37:45.384Z,14.84
2023-05-21T03:38:45.381Z,14.78
2023-05-21T03:39:45.369Z,14.70
2023-05-21T03:40:45.368Z,14.88
2023-05-21T03:41:45.379Z,14.72
2023-05-21T03:42:45.362Z,14.70
2023-05-21T03:43:45.345Z,14.77
2023-05-21T03:44:45.345Z,14.79
2023-05-21T03:45:45.387Z,14.91
2023-05-21T03:46:45.328Z,14.85
2023-05-21T03:47:45.424Z,14.97
2023-05-21T03:48:45.314Z,14.97
2023-05-21T03:49:45.310Z,15.06
2023-05-21T03:50:45.306Z,15.09
2023-05-21T03:51:45.304Z,15.09
2023-05-21T03:52:45.295Z,15.09
2023-05-21T03:53:45.286Z,15.24
2023-05-21T03:54:45.294Z,15.29
2023-05-21T03:55:45.285Z,15.28
2023-05-21T03:56:45.266Z,15.31
2023-05-21T03:57:45.264Z,15.39
2023-05-21T03:58:45.258Z,15.42
2023-05-21T03:59:45.254Z,15.35
2023-05-21T04:00:45.243Z,15.43
2023-05-21T04:01:45.247Z,15.43
2023-05-21T04:02:45.319Z,15.43
2023-05-21T04:03:45.295Z,15.44
2023-05-21T04:04:45.347Z,15.43
2023-05-21T04:05:45.238Z,15.39
2023-05-21T04:06:45.212Z,15.40
2023-05-21T04:07:45.203Z,15.31
2023-05-21T04:08:45.199Z,15.28
2023-05-21T04:09:45.199Z,15.25
2023-05-21T04:10:45.193Z,15.29
2023-05-21T04:11:45.193Z,15.36
2023-05-21T04:12:45.174Z,15.46
2023-05-21T04:13:45.184Z,15.57
2023-05-21T04:14:45.165Z,15.67
2023-05-21T04:15:45.184Z,15.79
2023-05-21T04:16:45.183Z,16.02
2023-05-21T04:17:45.154Z,16.24
2023-05-21T04:18:45.749Z,16.38
2023-05-21T04:19:45.137Z,16.43
2023-05-21T04:20:45.134Z,16.66
2023-05-21T04:21:45.170Z,16.93
2023-05-21T04:22:45.164Z,16.90
2023-05-21T04:23:45.116Z,16.87
2023-05-21T04:24:45.109Z,16.87
2023-05-21T04:25:45.104Z,16.90
2023-05-21T04:26:45.100Z,17.02
2023-05-21T04:27:45.121Z,17.16
2023-05-21T04:28:45.088Z,17.54
2023-05-21T04:29:45.100Z,17.65
2023-05-21T04:30:45.076Z,17.44
2023-05-21T04:31:45.184Z,17.49
2023-05-21T04:32:45.085Z,17.48
2023-05-21T04:33:45.066Z,17.29
2023-05-21T04:34:45.061Z,17.31
2023-05-21T04:35:45.055Z,17.41
2023-05-21T04:36:45.047Z,17.74
2023-05-21T04:37:45.041Z,17.95
2023-05-21T04:38:45.040Z,17.94
2023-05-21T04:39:45.033Z,17.98
2023-05-21T04:40:45.031Z,17.85
2023-05-21T04:41:45.027Z,17.79
2023-05-21T04:42:45.022Z,17.94
2023-05-21T04:43:45.014Z,18.10
2023-05-21T04:44:45.009Z,18.18
2023-05-21T04:45:45.085Z,18.19
2023-05-21T04:46:45.021Z,18.16
2023-05-21T04:47:45.033Z,18.22
2023-05-21T04:48:44.998Z,18.07
2023-05-21T04:49:44.992Z,18.05
2023-05-21T04:50:44.987Z,17.95
2023-05-21T04:51:44.986Z,18.04
2023-05-21T04:52:44.976Z,18.03
2023-05-21T04:53:44.973Z,18.00
2023-05-21T04:54:45.002Z,18.05
2023-05-21T04:55:44.968Z,18.07
2023-05-21T04:56:44.962Z,18.13
2023-05-21T04:57:44.960Z,18.22
2023-05-21T04:58:44.953Z,18.25
2023-05-21T04:59:44.959Z,18.52
2023-05-21T05:00:44.980Z,18.37
2023-05-21T05:01:44.940Z,18.52
2023-05-21T05:02:45.012Z,18.49
2023-05-21T05:03:44.948Z,18.18
2023-05-21T05:04:44.931Z,18.29
2023-05-21T05:05:44.936Z,18.53
2023-05-21T05:06:44.930Z,18.73
2023-05-21T05:07:44.923Z,18.99
2023-05-21T05:08:44.916Z,18.95
2023-05-21T05:09:44.910Z,18.75
2023-05-21T05:10:44.909Z,18.99
2023-05-21T05:11:44.932Z,19.04
2023-05-21T05:12:44.925Z,19.08
2023-05-21T05:13:44.897Z,19.18
2023-05-21T05:14:44.903Z,19.39
2023-05-21T05:15:45.292Z,19.59
2023-05-21T05:16:44.916Z,19.66
2023-05-21T05:17:44.924Z,19.79
2023-05-21T05:18:44.899Z,19.67
2023-05-21T05:19:44.889Z,19.34
2023-05-21T05:20:44.890Z,19.33
2023-05-21T05:21:44.971Z,19.45
2023-05-21T05:22:44.874Z,19.47
2023-05-21T05:23:44.868Z,19.19
2023-05-21T05:24:44.949Z,18.95
2023-05-21T05:25:44.863Z,18.80
2023-05-21T05:26:44.866Z,18.93
2023-05-21T05:27:44.855Z,19.22
2023-05-21T05:28:44.860Z,19.62
2023-05-21T05:29:44.857Z,19.76
2023-05-21T05:30:44.883Z,19.71
2023-05-21T05:31:44.880Z,19.58
2023-05-21T05:32:44.847Z,19.77
2023-05-21T05:33:44.841Z,19.69
2023-05-21T05:34:44.837Z,19.73
2023-05-21T05:35:44.831Z,19.79
2023-05-21T05:36:44.903Z,19.88
2023-05-21T05:37:44.836Z,20.11
2023-05-21T05:38:44.824Z,20.13
2023-05-21T05:39:44.827Z,20.13
2023-05-21T05:40:44.816Z,20.22
2023-05-21T05:41:44.825Z,20.21
2023-05-21T05:42:44.817Z,19.82
2023-05-21T05:43:44.817Z,19.76
2023-05-21T05:44:44.813Z,19.58
2023-05-21T05:45:44.804Z,19.19
2023-05-21T05:46:44.815Z,19.30
2023-05-21T05:47:44.868Z,19.52
2023-05-21T05:48:44.801Z,19.37
2023-05-21T05:49:44.796Z,19.26
2023-05-21T05:50:44.795Z,19.36
2023-05-21T05:51:44.796Z,19.24
2023-05-21T05:52:44.970Z,19.30
2023-05-21T05:53:44.786Z,19.44
2023-05-21T05:54:44.785Z,19.77
2023-05-21T05:55:44.787Z,20.10
2023-05-21T05:56:44.785Z,20.18
2023-05-21T05:57:45.297Z,20.14
2023-05-21T05:58:44.807Z,19.88
2023-05-21T05:59:44.779Z,19.77
2023-05-21T06:00:44.773Z,19.51
2023-05-21T06:01:44.791Z,19.67
2023-05-21T06:02:44.916Z,19.59
2023-05-21T06:03:44.836Z,19.69
2023-05-21T06:04:44.765Z,19.66
2023-05-21T06:05:44.769Z,19.59
2023-05-21T06:06:44.757Z,19.69
2023-05-21T06:07:44.762Z,19.58
2023-05-21T06:08:44.766Z,19.34
2023-05-21T06:09:44.758Z,19.34
2023-05-21T06:10:44.760Z,19.22
2023-05-21T06:11:44.753Z,19.33
2023-05-21T06:12:44.746Z,19.58
2023-05-21T06:13:44.757Z,19.69
2023-05-21T06:14:45.305Z,19.70
2023-05-21T06:15:44.774Z,19.56
2023-05-21T06:16:44.740Z,19.55
2023-05-21T06:17:44.773Z,19.76
2023-05-21T06:18:44.768Z,19.63
2023-05-21T06:19:44.726Z,19.49
2023-05-21T06:20:44.730Z,19.36
2023-05-21T06:21:44.728Z,19.34
2023-05-21T06:22:44.725Z,19.15
2023-05-21T06:23:44.720Z,18.89
2023-05-21T06:24:44.789Z,18.98
2023-05-21T06:25:44.716Z,18.99
2023-05-21T06:26:44.724Z,18.92
2023-05-21T06:27:44.716Z,18.88
2023-05-21T06:28:44.717Z,18.99
2023-05-21T06:29:44.707Z,19.04
2023-05-21T06:30:44.705Z,19.11
2023-05-21T06:31:44.707Z,19.22
2023-05-21T06:32:44.769Z,19.16
2023-05-21T06:33:44.807Z,19.22
2023-05-21T06:34:44.761Z,19.07
2023-05-21T06:35:44.692Z,19.02
2023-05-21T06:36:44.690Z,18.92
2023-05-21T06:37:44.689Z,19.14
2023-05-21T06:38:44.686Z,19.29
2023-05-21T06:39:44.685Z,19.29
2023-05-21T06:40:44.699Z,19.09
2023-05-21T06:41:44.678Z,19.22
2023-05-21T06:42:44.687Z,19.30
2023-05-21T06:43:44.672Z,19.33
2023-05-21T06:44:44.671Z,19.44
2023-05-21T06:45:44.690Z,19.39
2023-05-21T06:46:44.673Z,19.44
2023-05-21T06:47:44.765Z,19.47
2023-05-21T06:48:44.660Z,19.58
2023-05-21T06:49:44.658Z,19.64
2023-05-21T06:50:44.672Z,19.74
2023-05-21T06:51:44.655Z,19.85
2023-05-21T06:52:44.655Z,19.63
2023-05-21T06:53:44.652Z,19.67
2023-05-21T06:54:44.654Z,19.63
2023-05-21T06:55:44.647Z,19.67
2023-05-21T06:56:44.645Z,19.64
2023-05-21T06:57:44.641Z,19.70
2023-05-21T06:58:44.636Z,19.77
2023-05-21T06:59:44.635Z,19.71
2023-05-21T07:00:44.629Z,19.88
2023-05-21T07:01:44.864Z,19.84
2023-05-21T07:02:44.666Z,20.03
2023-05-21T07:03:44.703Z,19.85
2023-05-21T07:04:44.628Z,19.89
2023-05-21T07:05:44.621Z,19.91
2023-05-21T07:06:44.622Z,20.13
2023-05-21T07:07:44.616Z,20.29
2023-05-21T07:08:44.616Z,20.18
2023-05-21T07:09:44.626Z,20.19
2023-05-21T07:10:44.614Z,20.07
2023-05-21T07:11:44.607Z,19.99
2023-05-21T07:12:44.607Z,20.06
2023-05-21T07:13:44.605Z,20.07
2023-05-21T07:14:44.602Z,20.22
2023-05-21T07:15:44.598Z,20.11
2023-05-21T07:16:44.652Z,20.06
2023-05-21T07:17:44.634Z,20.10
2023-05-21T07:18:44.620Z,20.14
2023-05-21T07:19:44.590Z,20.18
2023-05-21T07:20:44.590Z,20.22
2023-05-21T07:21:44.586Z,20.55
2023-05-21T07:22:44.585Z,20.55
2023-05-21T07:23:44.582Z,20.48
2023-05-21T07:24:44.616Z,20.58
2023-05-21T07:25:44.578Z,20.69
2023-05-21T07:26:44.595Z,20.88
2023-05-21T07:27:44.575Z,21.00
2023-05-21T07:28:44.579Z,21.14
2023-05-21T07:29:44.574Z,21.18
2023-05-21T07:30:44.611Z,21.29
2023-05-21T07:31:44.569Z,21.45
2023-05-21T07:32:44.599Z,21.79
2023-05-21T07:33:44.571Z,22.28
2023-05-21T07:34:44.578Z,22.53
2023-05-21T07:35:44.569Z,22.32
2023-05-21T07:36:44.571Z,22.35
2023-05-21T07:37:44.624Z,22.55
2023-05-21T07:38:44.569Z,23.05
2023-05-21T07:39:44.570Z,22.91
2023-05-21T07:40:44.592Z,23.06
2023-05-21T07:41:44.571Z,23.56
2023-05-21T07:42:44.583Z,24.02
2023-05-21T07:43:44.575Z,24.38
2023-05-21T07:44:44.572Z,24.88
2023-05-21T07:45:44.574Z,24.65
2023-05-21T07:46:44.674Z,24.28
2023-05-21T07:47:44.638Z,24.06
2023-05-21T07:48:44.602Z,23.73
2023-05-21T07:49:44.582Z,24.16
2023-05-21T07:50:44.583Z,24.20
2023-05-21T07:51:44.588Z,23.80
2023-05-21T07:52:44.632Z,24.08
2023-05-21T07:53:44.590Z,24.11
2023-05-21T07:54:44.601Z,23.76
2023-05-21T07:55:44.596Z,23.96
2023-05-21T07:56:44.606Z,23.92
2023-05-21T07:57:44.683Z,24.30
2023-05-21T07:58:44.602Z,25.04
2023-05-21T07:59:44.610Z,25.83
2023-05-21T08:00:44.610Z,26.13
2023-05-21T08:01:44.617Z,25.99
2023-05-21T08:02:44.669Z,25.26
2023-05-21T08:03:44.780Z,25.31
2023-05-21T08:04:44.684Z,25.38
2023-05-21T08:05:44.622Z,24.60
2023-05-21T08:06:44.625Z,24.36
2023-05-21T08:07:44.647Z,24.21
2023-05-21T08:08:44.637Z,24.11
2023-05-21T08:09:44.638Z,24.23
2023-05-21T08:10:44.644Z,24.01
2023-05-21T08:11:44.639Z,23.99
2023-05-21T08:12:44.644Z,24.40
2023-05-21T08:13:44.719Z,24.74
2023-05-21T08:14:44.674Z,25.47
2023-05-21T08:15:44.655Z,25.78
2023-05-21T08:16:44.743Z,25.69
2023-05-21T08:17:44.700Z,25.96
2023-05-21T08:18:44.698Z,25.72
2023-05-21T08:19:44.671Z,25.53
2023-05-21T08:20:44.678Z,25.35
2023-05-21T08:21:44.681Z,24.58
2023-05-21T08:22:44.680Z,24.10
2023-05-21T08:23:44.852Z,24.13
2023-05-21T08:24:44.682Z,24.43
2023-05-21T08:25:44.689Z,24.51
2023-05-21T08:26:44.688Z,24.50
2023-05-21T08:27:44.685Z,24.13
2023-05-21T08:28:44.690Z,23.69
2023-05-21T08:29:44.692Z,23.58
2023-05-21T08:30:44.695Z,23.61
2023-05-21T08:31:44.761Z,23.66
2023-05-21T08:32:44.746Z,23.73
2023-05-21T08:33:44.697Z,23.84
2023-05-21T08:34:44.695Z,23.76
2023-05-21T08:35:44.694Z,23.78
2023-05-21T08:36:44.698Z,23.50
2023-05-21T08:37:44.704Z,23.41
2023-05-21T08:38:44.698Z,23.59
2023-05-21T08:39:44.702Z,23.76
2023-05-21T08:40:44.699Z,23.74
2023-05-21T08:41:44.701Z,23.88
2023-05-21T08:42:44.702Z,23.99
2023-05-21T08:43:44.703Z,24.13
2023-05-21T08:44:44.703Z,23.77
2023-05-21T08:45:44.728Z,23.65
2023-05-21T08:46:44.710Z,23.66
2023-05-21T08:47:44.809Z,23.84
2023-05-21T08:48:44.707Z,23.87
2023-05-21T08:49:44.741Z,23.86
2023-05-21T08:50:44.706Z,23.80
2023-05-21T08:51:44.709Z,23.80
2023-05-21T08:52:44.708Z,23.74
2023-05-21T08:53:44.710Z,24.03
2023-05-21T08:54:44.716Z,24.11
2023-05-21T08:55:44.711Z,24.08
2023-05-21T08:56:44.713Z,24.26
2023-05-21T08:57:44.716Z,24.54
2023-05-21T08:58:44.716Z,24.91
2023-05-21T08:59:44.713Z,25.16
2023-05-21T09:00:44.721Z,25.22
2023-05-21T09:01:44.757Z,24.91
2023-05-21T09:02:44.795Z,24.26
2023-05-21T09:03:44.790Z,24.23
2023-05-21T09:04:44.737Z,24.21
2023-05-21T09:05:44.724Z,24.13
2023-05-21T09:06:44.752Z,23.99
2023-05-21T09:07:45.026Z,24.13
2023-05-21T09:08:44.731Z,24.30
2023-05-21T09:09:44.733Z,24.01
2023-05-21T09:10:44.732Z,24.01
2023-05-21T09:11:44.740Z,23.78
2023-05-21T09:12:44.732Z,23.80
2023-05-21T09:13:44.744Z,24.05
2023-05-21T09:14:44.736Z,24.20
2023-05-21T09:15:44.741Z,24.38
2023-05-21T09:16:44.753Z,24.54
2023-05-21T09:17:44.787Z,24.26
2023-05-21T09:18:44.795Z,23.92
2023-05-21T09:19:44.779Z,23.88
2023-05-21T09:20:44.740Z,23.80
2023-05-21T09:21:44.757Z,24.03
2023-05-21T09:22:44.752Z,24.11
2023-05-21T09:23:44.754Z,24.16
2023-05-21T09:24:44.751Z,24.28
2023-05-21T09:25:44.758Z,24.48
2023-05-21T09:26:44.779Z,24.36
2023-05-21T09:27:44.745Z,24.48
2023-05-21T09:28:44.752Z,24.65
2023-05-21T09:29:44.749Z,24.73
2023-05-21T09:30:44.793Z,24.39
2023-05-21T09:31:44.816Z,24.21
2023-05-21T09:32:44.818Z,24.35
2023-05-21T09:33:44.751Z,24.51
2023-05-21T09:34:44.769Z,24.77
2023-05-21T09:35:44.768Z,24.99
2023-05-21T09:36:44.751Z,24.89
2023-05-21T09:37:44.764Z,24.85
2023-05-21T09:38:44.748Z,24.91
2023-05-21T09:39:44.752Z,25.17
2023-05-21T09:40:44.751Z,25.25
2023-05-21T09:41:44.763Z,25.26
2023-05-21T09:42:44.773Z,24.84
2023-05-21T09:43:44.753Z,24.57
2023-05-21T09:44:44.769Z,24.42
2023-05-21T09:45:44.759Z,24.32
2023-05-21T09:46:44.800Z,24.36
2023-05-21T09:47:44.833Z,24.51
2023-05-21T09:48:44.796Z,24.54
2023-05-21T09:49:44.757Z,24.70
2023-05-21T09:50:44.760Z,24.76
2023-05-21T09:51:44.759Z,24.93
2023-05-21T09:52:44.758Z,25.11
2023-05-21T09:53:44.760Z,25.04
2023-05-21T09:54:44.764Z,24.92
2023-05-21T09:55:44.757Z,24.98
2023-05-21T09:56:44.770Z,25.13
2023-05-21T09:57:44.763Z,25.04
2023-05-21T09:58:44.769Z,24.99
2023-05-21T09:59:44.762Z,25.16
2023-05-21T10:00:44.764Z,24.96
2023-05-21T10:01:44.798Z,25.14
2023-05-21T10:02:44.799Z,25.23
2023-05-21T10:03:44.805Z,25.38
2023-05-21T10:04:44.905Z,25.18
2023-05-21T10:05:44.833Z,25.33
2023-05-21T10:06:44.768Z,25.36
2023-05-21T10:07:44.768Z,25.38
2023-05-21T10:08:44.769Z,25.35
2023-05-21T10:09:44.775Z,25.04
2023-05-21T10:10:44.772Z,25.04
2023-05-21T10:11:44.775Z,25.16
2023-05-21T10:12:44.768Z,24.89
2023-05-21T10:13:44.771Z,24.80
2023-05-21T10:14:44.776Z,24.81
2023-05-21T10:15:44.887Z,24.89
2023-05-21T10:16:44.924Z,25.22
2023-05-21T10:17:44.801Z,25.32
2023-05-21T10:18:44.797Z,25.46
2023-05-21T10:19:44.779Z,25.35
2023-05-21T10:20:44.774Z,25.31
2023-05-21T10:21:44.776Z,25.25
2023-05-21T10:22:44.815Z,25.41
2023-05-21T10:23:44.775Z,25.47
2023-05-21T10:24:44.776Z,25.73
2023-05-21T10:25:44.773Z,25.85
2023-05-21T10:26:44.774Z,25.83
2023-05-21T10:27:44.788Z,25.80
2023-05-21T10:28:44.779Z,25.59
2023-05-21T10:29:44.776Z,25.73
2023-05-21T10:30:44.783Z,25.99
2023-05-21T10:31:44.798Z,26.29
2023-05-21T10:32:44.969Z,26.02
2023-05-21T10:33:44.799Z,25.80
2023-05-21T10:34:44.782Z,25.78
2023-05-21T10:35:44.785Z,25.58
2023-05-21T10:36:44.804Z,25.54
2023-05-21T10:37:44.847Z,25.48
2023-05-21T10:38:44.780Z,25.55
2023-05-21T10:39:44.790Z,25.55
2023-05-21T10:40:44.787Z,25.60
2023-05-21T10:41:44.791Z,25.91
2023-05-21T10:42:44.788Z,25.88
2023-05-21T10:43:44.782Z,26.06
2023-05-21T10:44:44.785Z,26.07
2023-05-21T10:45:44.818Z,26.19
2023-05-21T10:46:44.791Z,25.96
2023-05-21T10:47:44.839Z,25.75
2023-05-21T10:48:44.790Z,25.51
2023-05-21T10:49:44.792Z,25.73
2023-05-21T10:50:44.792Z,25.54
2023-05-21T10:51:44.787Z,25.53
2023-05-21T10:52:44.787Z,25.54
2023-05-21T10:53:44.793Z,25.81
2023-05-21T10:54:44.799Z,25.81
2023-05-21T10:55:44.792Z,25.81
2023-05-21T10:56:44.807Z,25.66
2023-05-21T10:57:44.793Z,25.68
2023-05-21T10:58:44.805Z,25.93
2023-05-21T10:59:44.801Z,25.85
2023-05-21T11:00:44.809Z,25.90
2023-05-21T11:01:44.862Z,26.00
2023-05-21T11:02:44.870Z,26.00
2023-05-21T11:03:44.917Z,26.00
2023-05-21T11:04:44.852Z,26.05
2023-05-21T11:05:44.804Z,25.91
2023-05-21T11:06:44.814Z,25.81
2023-05-21T11:07:44.803Z,25.55
2023-05-21T11:08:44.805Z,25.58
2023-05-21T11:09:44.810Z,25.53
2023-05-21T11:10:44.826Z,25.54
2023-05-21T11:11:44.820Z,25.59
2023-05-21T11:12:44.807Z,25.73
2023-05-21T11:13:44.808Z,25.72
2023-05-21T11:14:44.816Z,25.54
2023-05-21T11:15:44.813Z,25.60
2023-05-21T11:16:44.857Z,25.73
2023-05-21T11:17:44.898Z,25.87
2023-05-21T11:18:44.850Z,25.90
2023-05-21T11:19:44.848Z,26.02
2023-05-21T11:20:44.816Z,25.99
2023-05-21T11:21:44.815Z,25.96
2023-05-21T11:22:44.815Z,26.07
2023-05-21T11:23:44.819Z,26.13
2023-05-21T11:24:44.823Z,26.16
2023-05-21T11:25:44.827Z,26.36
2023-05-21T11:26:44.821Z,26.53
2023-05-21T11:27:44.825Z,26.63
2023-05-21T11:28:44.822Z,26.45
2023-05-21T11:29:44.824Z,26.52
2023-05-21T11:30:44.991Z,26.29
2023-05-21T11:31:44.928Z,26.29
2023-05-21T11:32:44.849Z,26.31
2023-05-21T11:33:44.844Z,26.52
2023-05-21T11:34:44.832Z,26.41
2023-05-21T11:35:44.828Z,26.56
2023-05-21T11:36:44.851Z,26.53
2023-05-21T11:37:44.832Z,26.48
2023-05-21T11:38:44.836Z,26.23
2023-05-21T11:39:44.868Z,26.26
2023-05-21T11:40:44.840Z,26.26
2023-05-21T11:41:44.922Z,26.36
2023-05-21T11:42:44.864Z,26.44
2023-05-21T11:43:44.847Z,26.53
2023-05-21T11:44:44.853Z,26.58
2023-05-21T11:45:44.846Z,26.40
2023-05-21T11:46:44.873Z,26.28
2023-05-21T11:47:44.850Z,26.36
2023-05-21T11:48:44.848Z,26.16
2023-05-21T11:49:44.863Z,26.21
2023-05-21T11:50:44.850Z,26.31
2023-05-21T11:51:44.846Z,26.44
2023-05-21T11:52:44.850Z,26.60
2023-05-21T11:53:44.856Z,26.55
2023-05-21T11:54:44.850Z,26.48
2023-05-21T11:55:44.846Z,26.51
2023-05-21T11:56:44.850Z,26.55
2023-05-21T11:57:44.866Z,26.51
2023-05-21T11:58:44.859Z,26.58
2023-05-21T11:59:44.857Z,26.68
2023-05-21T12:00:44.854Z,26.77
2023-05-21T12:01:44.858Z,26.95
2023-05-21T12:02:44.966Z,27.05
2023-05-21T12:03:44.936Z,27.02
2023-05-21T12:04:44.879Z,26.89
2023-05-21T12:05:44.904Z,26.83
2023-05-21T12:06:44.878Z,27.18
2023-05-21T12:07:44.931Z,27.35
2023-05-21T12:08:44.911Z,27.30
2023-05-21T12:09:44.870Z,27.21
2023-05-21T12:10:46.268Z,27.02
2023-05-21T12:11:44.880Z,26.95
2023-05-21T12:12:54.972Z,27.00
2023-05-21T12:13:44.888Z,27.21
2023-05-21T12:14:44.973Z,27.32
2023-05-21T12:15:44.876Z,27.33
2023-05-21T12:16:44.913Z,27.44
2023-05-21T12:17:44.919Z,27.40
2023-05-21T12:18:44.902Z,27.47
2023-05-21T12:19:44.880Z,27.45
2023-05-21T12:20:44.900Z,27.29
2023-05-21T12:21:44.889Z,27.32
2023-05-21T12:22:44.916Z,27.26
2023-05-21T12:23:44.884Z,27.11
2023-05-21T12:24:44.890Z,27.18
2023-05-21T12:25:44.884Z,27.05
2023-05-21T12:26:44.891Z,27.02
2023-05-21T12:27:44.890Z,26.96
2023-05-21T12:28:44.894Z,27.03
2023-05-21T12:29:44.895Z,27.11
2023-05-21T12:30:44.904Z,27.22
2023-05-21T12:31:44.941Z,27.36
2023-05-21T12:32:44.973Z,27.51
2023-05-21T12:33:44.904Z,27.63
2023-05-21T12:34:44.933Z,27.73
2023-05-21T12:35:44.925Z,27.44
2023-05-21T12:36:44.903Z,27.47
2023-05-21T12:37:44.915Z,27.45
2023-05-21T12:38:44.907Z,27.48
2023-05-21T12:39:44.924Z,27.60
2023-05-21T12:40:44.914Z,27.20
2023-05-21T12:41:44.914Z,27.22
2023-05-21T12:42:44.919Z,27.45
2023-05-21T12:43:44.916Z,27.52
2023-05-21T12:44:44.922Z,27.36
2023-05-21T12:45:44.978Z,27.40
2023-05-21T12:46:44.923Z,27.55
2023-05-21T12:47:44.966Z,27.59
2023-05-21T12:48:44.927Z,27.36
2023-05-21T12:49:44.938Z,27.33
2023-05-21T12:50:45.048Z,27.33
2023-05-21T12:51:44.930Z,26.96
2023-05-21T12:52:44.975Z,26.93